This is the latest recevied weather packets stored in our database for station/object 9A7DI-13. If no packets are shown the sender has not sent any weather packets the latest 10 day(s).
| Time | Temp. | Humidity | Pressure | Rain* | Wind** | Luminosity | Snow |
|---|---|---|---|---|---|---|---|
| 1777722435 | 22.78° C | 29% | 1030.7 hPa | - | - | - | - |
| 1777721835 | 23.33° C | 28% | 1030.8 hPa | - | - | - | - |
| 1777721235 | 22.78° C | 30% | 1031 hPa | - | - | - | - |
| 1777720635 | 22.22° C | 28% | 1031.1 hPa | - | - | - | - |
| 1777720035 | 23.33° C | 28% | 1031.2 hPa | - | - | - | - |
| 1777719435 | 23.33° C | 27% | 1031.4 hPa | - | - | - | - |
| 1777718835 | 22.78° C | 27% | 1031.5 hPa | - | - | - | - |
| 1777718235 | 23.89° C | 25% | 1031.5 hPa | - | - | - | - |
| 1777717635 | 23.89° C | 28% | 1031.7 hPa | - | - | - | - |
| 1777717035 | 25° C | 26% | 1031.7 hPa | - | - | - | - |
| 1777716435 | 21.67° C | 31% | 1031.8 hPa | - | - | - | - |
| 1777715835 | 22.78° C | 29% | 1031.9 hPa | - | - | - | - |
| 1777715235 | 23.89° C | 28% | 1032 hPa | - | - | - | - |
| 1777714635 | 25° C | 26% | 1032.1 hPa | - | - | - | - |
| 1777714035 | 25° C | 29% | 1032.2 hPa | - | - | - | - |
| 1777713435 | 25° C | 30% | 1032.3 hPa | - | - | - | - |
| 1777712835 | 24.44° C | 29% | 1032.4 hPa | - | - | - | - |
| 1777712235 | 23.89° C | 31% | 1032.4 hPa | - | - | - | - |
| 1777711635 | 23.89° C | 30% | 1032.4 hPa | - | - | - | - |
| 1777711035 | 23.89° C | 31% | 1032.5 hPa | - | - | - | - |
| 1777710435 | 23.33° C | 33% | 1032.5 hPa | - | - | - | - |
| 1777709835 | 23.33° C | 32% | 1032.6 hPa | - | - | - | - |
| 1777709235 | 23.33° C | 32% | 1032.7 hPa | - | - | - | - |
| 1777708635 | 22.22° C | 32% | 1032.7 hPa | - | - | - | - |
| 1777708035 | 22.22° C | 33% | 1032.8 hPa | - | - | - | - |
* Rain since midnight (hover to see other rain measurements)
** Current wind speed in m/s (hover to see current wind gust speed)